Latest Coastal Weather Observations for Portland Airport

IDS60701

Issued at 7:21 pm CST Sunday 26 June 2016 (issued every 10 minutes, with the page automatically refreshed every 10 minutes)

About coastal observations | Map of coastal stations | Coastal observations for SA | Marine services | Other Formats
Station Details ID: 090171 Name: CASHMORE AIRPORT Lat: -38.31 Lon: 141.47 Height: 80.9 m
Data from the previous 72 hours. | See also: Recent months at Portland Airport
Date/Time
CST
Temp
°C
Wind Pressure Rain since
9am
mm
Weather Cloud Vis
km
Sea
Height
m
Swell
Dir  Spd
kts
Gust
kts
hPa Trend Height
m
Period
s
Dir
26/07:00pm 8.9 NNW 9 13 1014.5 - 0.0 - Partly cloudy 10 - - - -
26/06:30pm 9.0 NNW 8 13 1014.6 - 0.0 - Cloudy 10 - - - -
26/06:00pm 9.2 NNW 10 14 1014.4 - 0.0 - Cloudy 10 - - - -
26/05:30pm 9.4 NNW 9 13 1014.4 - 0.0 - Cloudy 10 - - - -
26/05:00pm 9.6 NNW 9 14 1014.3 - 0.0 - Partly cloudy 10 - - - -
26/04:30pm 9.9 NNW 10 13 1014.2 - 0.0 - Cloudy 10 - - - -
26/04:00pm 10.2 NNW 10 14 1014.1 - 0.0 - Partly cloudy 10 - - - -
26/03:30pm 10.4 NNW 11 16 1014.1 - 0.0 - Cloudy 10 - - - -
26/03:00pm 10.8 NNW 11 16 1014.2 - 0.0 - Cloudy 10 - - - -
26/02:30pm 11.0 NNW 14 20 1014.1 - 0.0 - Partly cloudy 10 - - - -
26/02:00pm 12.0 NW 16 23 1014.2 - 0.0 - Cloudy 10 - - - -
26/01:30pm 11.8 NNW 12 18 1014.6 - 0.0 - Partly cloudy 10 - - - -
26/01:00pm 11.9 NNW 13 21 1014.9 - 0.0 - - 10 - - - -
26/12:30pm 11.5 NNW 11 19 1015.4 - 0.0 - Cloudy 10 - - - -
26/12:00pm 11.2 NNW 11 16 1015.7 - 0.0 - Partly cloudy 10 - - - -
26/11:30am 11.2 NNW 12 20 1016.0 - 0.0 - - 10 - - - -
26/11:00am 10.6 NNW 12 17 1016.4 - 0.0 - - 10 - - - -
26/10:30am 10.1 NNW 11 17 1016.9 - 0.0 - - 10 - - - -
26/10:00am 9.5 NNW 10 15 1017.1 - 0.0 - - 10 - - - -
26/09:30am 8.6 N 8 12 1017.2 - 0.0 - - 10 - - - -
26/09:00am 7.1 N 8 11 1017.4 - 0.0 - Partly cloudy 10 - - - -
26/08:30am 5.8 N 8 11 1017.6 - 0.2 - - 10 - - - -
26/08:00am 4.7 N 8 11 1017.8 - 0.2 - - 10 - - - -
26/07:30am 4.0 N 7 10 1018.1 - 0.2 - - 10 - - - -
26/07:00am 3.6 N 8 10 1018.3 - 0.2 - - 10 - - - -
26/06:30am 3.6 N 9 12 1018.2 - 0.2 - - 10 - - - -
26/06:00am 3.4 N 8 11 1018.3 - 0.2 - - 10 - - - -
26/05:30am 3.2 N 7 10 1018.2 - 0.2 - - 10 - - - -
26/05:00am 2.8 N 6 9 1018.1 - 0.2 - - 10 - - - -
26/04:30am 3.1 N 7 9 1018.3 - 0.2 - - 10 - - - -
26/04:00am 3.6 N 8 11 1018.5 - 0.2 - - 10 - - - -
26/03:30am 3.3 N 8 11 1018.7 - 0.2 - - 10 - - - -
26/03:00am 2.9 N 5 7 1018.8 - 0.2 - - 10 - - - -
26/02:30am 2.5 N 5 6 1019.3 - 0.2 - - 10 - - - -
26/02:00am 3.3 N 7 8 1019.5 - 0.2 - - 10 - - - -
26/01:30am 3.0 N 5 7 1019.7 - 0.2 - - 10 - - - -
26/01:00am 3.5 NNW 6 7 1020.0 - 0.2 - - 10 - - - -
26/12:30am 4.0 N 6 8 1020.0 - 0.2 - - 10 - - - -
26/12:00am 4.3 N 6 8 1020.4 - 0.2 - - 10 - - - -
 
Date/Time
CST
Temp
°C
Wind Pressure Rain since
9am
mm
Weather Cloud Vis
km
Sea
Height
m
Swell
Dir  Spd
kts
Gust
kts
hPa Trend Height
m
Period
s
Dir
25/11:30pm 4.5 N 6 7 1020.6 - 0.2 - - 10 - - - -
25/11:00pm 4.2 N 6 7 1020.9 - 0.2 - - 10 - - - -
25/10:30pm 4.6 NNW 7 8 1021.2 - 0.2 - - 10 - - - -
25/10:00pm 5.1 N 7 9 1021.4 - 0.2 - - 10 - - - -
25/09:30pm 5.1 N 7 8 1021.4 - 0.2 - - 10 - - - -
25/09:00pm 4.9 NNW 7 8 1021.6 - 0.2 - - 10 - - - -
25/08:30pm 5.2 NNW 6 7 1021.7 - 0.2 - - 10 - - - -
25/08:00pm 5.4 NNW 6 7 1021.7 - 0.2 - - 10 - - - -
25/07:30pm 5.7 NNW 5 7 1021.8 - 0.2 - - 10 - - - -
25/07:00pm 5.4 NNW 4 6 1022.1 - 0.2 - - 10 - - - -
25/06:30pm 6.5 NNW 5 6 1022.0 - 0.2 - - 10 - - - -
25/06:00pm 6.9 NNW 5 6 1021.9 - 0.2 - - 10 - - - -
25/05:30pm 7.3 NNW 6 8 1021.9 - 0.2 - - 10 - - - -
25/05:00pm 8.0 N 6 7 1021.9 - 0.2 - - 10 - - - -
25/04:30pm 9.8 NNW 6 8 1021.9 - 0.2 - Partly cloudy 10 - - - -
25/04:00pm 11.2 NNW 8 13 1022.0 - 0.2 - Cloudy 10 - - - -
25/03:30pm 11.1 WNW 7 10 1022.0 - 0.2 - Cloudy 10 - - - -
25/03:00pm 11.1 WNW 7 9 1022.0 - 0.2 - Partly cloudy 10 - - - -
25/02:30pm 11.1 WNW 9 11 1021.9 - 0.2 - Partly cloudy 10 - - - -
25/02:00pm 12.1 NW 9 13 1022.1 - 0.2 - Partly cloudy 10 - - - -
25/01:30pm 12.5 NW 9 13 1022.4 - 0.2 - Partly cloudy 10 - - - -
25/01:00pm 11.8 WNW 8 12 1022.7 - 0.2 - - 10 - - - -
25/12:30pm 11.2 WNW 9 12 1023.0 - 0.2 - Partly cloudy 10 - - - -
25/12:00pm 11.0 WNW 7 11 1023.3 - 0.2 - Cloudy 10 - - - -
25/11:30am 10.5 WNW 7 9 1023.6 - 0.2 - Mostly clear 10 - - - -
25/11:00am 12.1 NW 8 9 1023.6 - 0.2 - - 10 - - - -
25/10:30am 11.2 NW 8 10 1023.9 - 0.2 - Partly cloudy 10 - - - -
25/10:00am 10.9 NW 10 12 1023.9 - 0.2 - Partly cloudy 10 - - - -
25/09:30am 9.7 NW 7 9 1023.7 - 0.0 - Partly cloudy 10 - - - -
25/09:00am 8.1 N 5 6 1023.4 - 0.0 - Cloudy 10 - - - -
25/08:30am 7.3 N 4 5 1023.2 - 2.4 - Mostly cloudy 10 - - - -
25/08:00am 6.5 WNW 5 7 1022.8 - 2.4 - Cloudy 10 - - - -
25/07:30am 6.8 WSW 2 5 1022.6 - 2.4 - Partly cloudy 10 - - - -
25/07:00am 7.4 WSW 3 5 1022.5 - 2.4 - Cloudy 10 - - - -
25/06:30am 7.1 WSW 4 5 1022.3 - 2.4 - Partly cloudy 10 - - - -
25/06:00am 8.7 WSW 5 5 1022.0 - 2.4 - Cloudy 10 - - - -
25/05:30am 8.8 WSW 5 7 1021.8 - 2.4 - Cloudy 10 - - - -
25/05:00am 8.8 SW 4 6 1021.5 - 2.4 - Partly cloudy 10 - - - -
25/04:30am 8.7 SW 5 7 1021.2 - 2.4 - Partly cloudy 10 - - - -
25/04:00am 8.7 WSW 7 8 1020.9 - 2.4 - Partly cloudy 10 - - - -
25/03:30am 8.9 SW 7 10 1020.8 - 2.4 - Cloudy 10 - - - -
25/03:00am 8.4 WSW 6 9 1020.9 - 2.4 - Partly cloudy 10 - - - -
25/02:30am 7.6 WSW 7 8 1020.9 - 2.4 - Partly cloudy 10 - - - -
25/02:00am 7.9 WSW 8 11 1020.8 - 2.4 - Partly cloudy 10 - - - -
25/01:30am 7.6 W 7 9 1020.7 - 2.4 - Partly cloudy 10 - - - -
25/01:00am 8.5 WSW 10 14 1020.4 - 2.4 - Partly cloudy 10 - - - -
25/12:30am 8.0 SW 8 11 1020.2 - 2.4 - Partly cloudy 10 - - - -
25/12:00am 8.5 SSW 7 12 1019.9 - 2.4 - Partly cloudy 10 - - - -
 
Date/Time
CST
Temp
°C
Wind Pressure Rain since
9am
mm
Weather Cloud Vis
km
Sea
Height
m
Swell
Dir  Spd
kts
Gust
kts
hPa Trend Height
m
Period
s
Dir
24/11:30pm 7.7 SSW 5 8 1019.8 - 2.4 Recent precip. Cloudy 10 - - - -
24/11:00pm 8.1 SW 9 15 1019.6 - 2.4 - Partly cloudy 10 - - - -
24/10:30pm 8.2 WSW 10 14 1019.4 - 2.2 - Partly cloudy 10 - - - -
24/10:00pm 7.4 SW 9 13 1019.3 - 2.2 - Partly cloudy 10 - - - -
24/09:30pm 7.7 SSW 8 13 1019.1 - 2.2 - Partly cloudy 10 - - - -
24/09:00pm 5.9 WSW 6 8 1018.6 - 2.2 - Partly cloudy 10 - - - -
24/08:30pm 7.1 SW 13 22 1018.5 - 2.2 - Mostly cloudy 10 - - - -
24/08:00pm 8.4 SSW 11 19 1017.9 - 2.2 - Partly cloudy 10 - - - -
24/07:30pm 8.3 SW 11 16 1017.5 - 2.2 - Partly cloudy 10 - - - -
24/07:00pm 8.1 SW 11 17 1016.7 - 2.2 - Partly cloudy 10 - - - -
24/06:30pm 8.1 SW 12 17 1016.0 - 2.2 - Partly cloudy 10 - - - -
24/06:00pm 7.8 SSW 12 21 1015.5 - 2.2 - Partly cloudy 10 - - - -
24/05:30pm 7.7 SW 13 20 1014.9 - 2.2 - Mostly clear 10 - - - -
24/05:00pm 7.9 SW 12 19 1014.4 - 2.2 - Partly cloudy 10 - - - -
24/04:30pm 7.3 SSW 9 16 1013.9 - 2.2 - Partly cloudy 10 - - - -
24/04:00pm 6.6 SW 12 18 1013.3 - 2.2 - Partly cloudy 10 - - - -
24/03:30pm 6.4 WSW 16 31 1013.2 - 1.6 - Partly cloudy 10 - - - -
24/03:00pm 8.3 SW 15 25 1012.1 - 1.6 - Partly cloudy 10 - - - -
24/02:55pm 8.3 SW 15 25 1012.1 - 1.6 - Partly cloudy 10 - - - -
24/02:30pm 7.5 SW 9 15 1011.5 - 1.6 - Mostly cloudy 10 - - - -
24/02:00pm 8.4 SW 16 26 1011.3 - 1.6 - Partly cloudy 10 - - - -
24/01:30pm 7.9 WSW 15 23 1010.8 - 1.6 - Partly cloudy 10 - - - -
24/01:11pm 6.8 SW 14 26 1010.7 - 1.6 - Partly cloudy 10 - - - -
24/01:00pm 7.2 SW 13 22 1010.7 - 1.6 - Partly cloudy 10 - - - -
24/12:30pm 6.3 WSW 24 35 1010.1 - 1.4 - Partly cloudy 10 - - - -
24/12:01pm 8.7 SW 15 26 1009.3 - 1.4 - Partly cloudy 10 - - - -
24/12:00pm 8.5 SW 14 26 1009.4 - 1.4 - Partly cloudy 10 - - - -
24/11:35am 8.5 WSW 18 29 1008.9 - 1.4 - Partly cloudy 10 - - - -
24/11:30am 8.5 WSW 19 26 1008.9 - 1.4 Recent precip. Partly cloudy 10 - - - -
24/11:10am 7.7 SW 15 25 1008.9 - 1.4 - Partly cloudy 10 - - - -
24/11:00am 6.7 SW 17 24 1008.7 - 1.4 - Partly cloudy 10 - - - -
24/10:30am 7.1 SW 16 23 1008.0 - 1.2 - Partly cloudy 10 - - - -
24/10:08am 6.0 SW 12 19 1007.6 - 1.2 - Partly cloudy 10 - - - -
24/10:00am 5.8 SW 13 20 1007.5 - 1.2 - Partly cloudy 9 - - - -
24/09:57am 5.8 SW 16 34 1007.5 - 1.0 - Partly cloudy 5 - - - -
24/09:50am 5.8 WSW 20 40 1007.5 - 1.0 - Partly cloudy 6 - - - -
24/09:47am 7.2 WSW 18 40 1007.3 - 0.0 - Partly cloudy 10 - - - -
24/09:30am 8.2 WSW 18 30 1006.1 - 0.0 - Partly cloudy 10 - - - -
24/09:04am 8.3 WSW 16 26 1005.4 - 0.0 - Partly cloudy 10 - - - -
24/09:00am 8.2 WSW 16 25 1005.4 - 0.0 - Partly cloudy 10 - - - -
24/08:55am 8.2 WSW 15 25 1005.2 - 0.0 - Partly cloudy 10 - - - -
24/08:30am 7.6 WSW 12 19 1004.8 - 24.6 - Partly cloudy 10 - - - -
24/08:00am 7.5 WSW 17 26 1004.1 - 24.6 - Partly cloudy 10 - - - -
24/07:30am 7.1 WSW 15 25 1003.6 - 24.6 - - 10 - - - -
24/07:26am 7.1 WSW 15 25 1003.5 - 24.6 - - 10 - - - -
24/07:00am 6.8 WSW 13 20 1002.7 - 24.6 - Partly cloudy 10 - - - -
24/06:30am 6.5 SW 15 24 1002.2 - 24.4 - Partly cloudy 10 - - - -
24/06:13am 6.9 WSW 16 27 1001.9 - 24.4 - Partly cloudy 10 - - - -
24/06:00am 7.1 WSW 16 24 1001.6 - 24.4 - Partly cloudy 10 - - - -
24/05:47am 6.6 WSW 18 28 1001.2 - 24.4 - Partly cloudy 10 - - - -
24/05:42am 6.6 WSW 17 26 1001.1 - 24.4 - Partly cloudy 10 - - - -
24/05:30am 5.4 SW 9 15 1000.7 - 24.4 Rain Cloudy 10 - - - -
24/05:23am 4.8 WSW 8 18 1000.5 - 24.2 - Partly cloudy 10 - - - -
24/05:15am 4.5 SW 10 18 1000.8 - 24.2 - Partly cloudy 10 - - - -
24/05:06am 4.5 WSW 16 35 1000.6 - 24.0 - Partly cloudy 6 - - - -
24/05:03am 5.9 WSW 14 35 1000.6 - 23.0 - Partly cloudy 10 - - - -
24/05:00am 6.9 WSW 9 18 1000.2 - 23.0 - Partly cloudy 10 - - - -
24/04:30am 6.3 WSW 12 18 1000.0 - 23.0 - Partly cloudy 10 - - - -
24/04:00am 4.6 NW 7 9 1000.1 - 23.0 - Partly cloudy 10 - - - -
24/03:52am 4.5 NNW 6 9 1000.0 - 22.8 - Partly cloudy 10 - - - -
24/03:45am 4.4 NW 5 8 999.9 - 22.8 - Partly cloudy 10 - - - -
24/03:40am 4.3 NW 6 11 999.9 - 22.8 - Partly cloudy 10 - - - -
24/03:30am 4.3 NW 7 16 1000.1 - 22.6 - Partly cloudy 4 - - - -
24/03:25am 4.6 N 6 11 1000.2 - 21.6 - Partly cloudy 6 - - - -
24/03:00am 4.6 NNW 9 13 999.1 - 20.2 - Partly cloudy 10 - - - -
24/02:30am 4.8 WNW 11 17 999.7 - 20.0 Rain Cloudy 10 - - - -
24/02:00am 5.1 NNW 7 10 999.0 - 19.2 - Partly cloudy 10 - - - -
24/01:30am 5.3 NNW 8 11 998.7 - 19.0 - Partly cloudy 10 - - - -
24/01:00am 5.2 N 7 9 998.9 - 19.0 - Partly cloudy 10 - - - -
24/12:30am 5.4 NNW 8 11 999.3 - 19.0 - Partly cloudy 10 - - - -
24/12:07am 6.3 W 13 19 999.4 - 19.0 - Partly cloudy 10 - - - -
24/12:00am 6.1 WNW 11 18 999.3 - 18.8 - Partly cloudy 10 - - - -
 
Date/Time
CST
Temp
°C
Wind Pressure Rain since
9am
mm
Weather Cloud Vis
km
Sea
Height
m
Swell
Dir  Spd
kts
Gust
kts
hPa Trend Height
m
Period
s
Dir
23/11:50pm 5.9 WNW 11 16 999.5 - 18.6 - Partly cloudy 6 - - - -
23/11:36pm 6.0 NW 14 20 999.2 - 17.2 - Partly cloudy 6 - - - -
23/11:30pm 5.8 NW 12 16 999.2 - 16.6 Rain Cloudy 10 - - - -
23/11:00pm 6.0 NNW 12 18 998.7 - 16.0 - Partly cloudy 10 - - - -
23/10:30pm 6.1 NNW 12 17 998.6 - 16.0 - Cloudy 10 - - - -
23/10:00pm 6.4 NW 9 12 998.7 - 16.0 - Partly cloudy 10 - - - -
23/09:30pm 6.6 NNW 9 14 998.6 - 16.0 - Partly cloudy 10 - - - -
23/09:00pm 6.4 NW 8 12 998.4 - 16.0 - Partly cloudy 10 - - - -
23/08:30pm 6.2 NNW 6 9 998.7 - 16.0 Recent precip. Partly cloudy 10 - - - -
23/08:00pm 6.6 NNW 9 13 998.6 - 16.0 - Partly cloudy 10 - - - -
23/07:39pm 6.8 NW 9 12 998.5 - 15.8 - Partly cloudy 10 - - - -
23/07:30pm 6.6 NW 12 20 998.5 - 15.6 - Partly cloudy 7 - - - -
23/07:24pm 6.6 WNW 12 20 998.4 - 15.0 - Partly cloudy 6 - - - -
23/07:00pm 6.7 NW 10 14 998.6 - 13.8 - Partly cloudy 10 - - - -

Other Formats:

Comma delimited format used in spreadsheet applications
http://www.bom.gov.au/fwo/IDS60701/IDS60701.94828.axf

JavaScript Object Notation format (JSON) in row-major order
http://www.bom.gov.au/fwo/IDS60701/IDS60701.94828.json